Time;durP1;ratioP1;P1;durP2;ratioP2;P2;SDS_P1;SDS_P2;PMS_P1;PMS_P2;Temp;Humidity;BMP_temperature;BMP_pressure;BME280_temperature;BME280_humidity;BME280_pressure;Samples;Min_cycle;Max_cycle;Signal;HPM_P1;HPM_P2
2021/09/18 00:01:27;;;;;;;3.38;2.10;;;14.60;82.60;;;;;;5074078;28;20253;-86
2021/09/18 00:03:54;;;;;;;2.85;2.20;;;14.60;82.70;;;;;;5074235;28;20628;-86
2021/09/18 00:06:21;;;;;;;4.85;2.10;;;14.60;82.50;;;;;;5075193;28;20198;-86
2021/09/18 00:08:46;;;;;;;3.28;2.22;;;14.60;82.50;;;;;;5073882;28;20190;-87
2021/09/18 00:11:12;;;;;;;6.07;2.50;;;14.60;82.70;;;;;;5074033;28;20180;-86
2021/09/18 00:13:38;;;;;;;3.03;2.40;;;14.50;82.90;;;;;;5073777;28;20186;-87
2021/09/18 00:16:04;;;;;;;2.72;2.17;;;14.60;83.00;;;;;;5075218;28;20647;-87
2021/09/18 00:18:29;;;;;;;3.13;2.53;;;14.50;82.90;;;;;;5074119;28;20207;-87
2021/09/18 00:20:56;;;;;;;3.08;2.65;;;14.60;83.10;;;;;;5074766;28;20560;-87
2021/09/18 00:23:22;;;;;;;2.33;2.10;;;14.50;83.20;;;;;;5073571;28;20261;-86
2021/09/18 00:25:48;;;;;;;4.55;2.53;;;14.50;83.30;;;;;;5073591;28;20266;-87
2021/09/18 00:28:14;;;;;;;3.30;2.45;;;14.50;83.50;;;;;;5073708;28;20230;-87
2021/09/18 00:30:40;;;;;;;3.85;2.95;;;14.50;83.60;;;;;;5073679;28;20643;-87
2021/09/18 00:33:06;;;;;;;2.65;2.40;;;14.50;83.70;;;;;;5074288;28;20667;-87
2021/09/18 00:35:31;;;;;;;3.13;2.80;;;14.50;83.70;;;;;;5073380;28;20195;-87
2021/09/18 00:37:58;;;;;;;5.28;2.80;;;14.50;84.00;;;;;;5074517;28;20195;-87
2021/09/18 00:40:23;;;;;;;4.85;2.55;;;14.40;84.30;;;;;;5073012;28;20171;-87
2021/09/18 00:42:49;;;;;;;5.28;2.92;;;14.50;84.10;;;;;;5073271;28;20214;-87
2021/09/18 00:45:15;;;;;;;3.78;2.58;;;14.50;83.90;;;;;;5074672;28;20163;-87
2021/09/18 00:47:41;;;;;;;3.13;2.80;;;14.40;84.00;;;;;;5074423;28;20171;-87
2021/09/18 00:50:07;;;;;;;6.70;2.63;;;14.40;83.90;;;;;;5073151;28;20175;-87
2021/09/18 00:52:34;;;;;;;5.10;2.70;;;14.40;84.00;;;;;;5072802;28;20195;-87
2021/09/18 00:55:00;;;;;;;3.67;3.10;;;14.40;84.00;;;;;;5072739;28;20198;-87
2021/09/18 00:57:26;;;;;;;4.63;3.03;;;14.40;84.20;;;;;;5072808;28;20686;-87
2021/09/18 00:59:52;;;;;;;4.40;3.25;;;14.30;84.30;;;;;;5073004;28;20167;-87
2021/09/18 01:02:17;;;;;;;5.75;3.13;;;14.30;84.60;;;;;;5073846;28;20191;-87
2021/09/18 01:04:43;;;;;;;5.35;3.15;;;14.20;85.00;;;;;;5072723;28;20627;-87
2021/09/18 01:07:09;;;;;;;4.68;3.50;;;14.20;85.00;;;;;;5074014;28;20163;-87
2021/09/18 01:09:35;;;;;;;4.85;3.00;;;14.10;85.40;;;;;;5073028;28;20175;-87
2021/09/18 01:12:05;;;;;;;6.57;3.15;;;14.20;85.40;;;;;;5072599;28;20210;-87
2021/09/18 01:14:31;;;;;;;6.38;3.00;;;14.30;85.20;;;;;;5073946;28;20162;-87
2021/09/18 01:16:57;;;;;;;5.07;3.47;;;14.30;85.30;;;;;;5072826;28;20566;-87
2021/09/18 01:19:23;;;;;;;6.22;3.33;;;14.20;85.50;;;;;;5073900;28;20167;-87
2021/09/18 01:21:49;;;;;;;6.35;3.50;;;14.20;85.80;;;;;;5073103;28;20278;-87
2021/09/18 01:24:16;;;;;;;3.95;3.30;;;14.20;85.60;;;;;;5072362;28;20270;-87
2021/09/18 01:26:42;;;;;;;4.22;3.28;;;14.20;85.50;;;;;;5073757;28;20171;-87
2021/09/18 01:29:08;;;;;;;4.20;3.60;;;14.20;85.80;;;;;;5072404;28;20171;-87
2021/09/18 01:31:39;;;;;;;4.47;3.75;;;14.20;85.80;;;;;;5072363;28;20232;-87
2021/09/18 01:34:05;;;;;;;4.63;3.55;;;14.20;86.00;;;;;;5073283;28;20616;-87
2021/09/18 01:36:31;;;;;;;4.57;3.53;;;14.20;85.90;;;;;;5072175;28;20369;-87
2021/09/18 01:38:56;;;;;;;4.70;3.83;;;14.20;86.00;;;;;;5073430;28;20180;-87
2021/09/18 01:41:22;;;;;;;4.82;3.50;;;14.30;85.70;;;;;;5072317;28;20289;-87
2021/09/18 01:43:47;;;;;;;5.18;3.70;;;14.30;85.60;;;;;;5072213;28;20202;-87
2021/09/18 01:46:13;;;;;;;6.03;3.70;;;14.30;85.60;;;;;;5072449;28;20186;-87
2021/09/18 01:48:39;;;;;;;3.97;3.08;;;14.30;85.60;;;;;;5072120;28;20178;-87
2021/09/18 01:51:10;;;;;;;5.00;4.03;;;14.30;85.50;;;;;;5073406;28;20182;-87
2021/09/18 01:53:35;;;;;;;4.95;4.07;;;14.20;85.60;;;;;;5072878;28;20174;-87
2021/09/18 01:56:01;;;;;;;5.88;4.25;;;14.30;86.00;;;;;;5071992;28;20179;-87
2021/09/18 01:58:26;;;;;;;5.47;3.92;;;14.20;85.70;;;;;;5071974;28;20178;-87
2021/09/18 02:00:55;;;;;;;5.35;4.10;;;14.30;85.60;;;;;;5071941;28;20179;-87
2021/09/18 02:03:21;;;;;;;4.45;4.05;;;14.40;85.50;;;;;;5073408;28;20222;-87
2021/09/18 02:05:47;;;;;;;4.28;3.88;;;14.40;85.30;;;;;;5073282;28;20207;-87
2021/09/18 02:08:13;;;;;;;4.60;4.13;;;14.40;85.40;;;;;;5073260;28;20175;-87
2021/09/18 02:10:39;;;;;;;5.25;4.75;;;14.30;85.60;;;;;;5073248;28;20167;-87
2021/09/18 02:13:07;;;;;;;6.00;3.83;;;14.20;86.50;;;;;;5071859;28;20679;-87
2021/09/18 02:15:34;;;;;;;5.70;4.75;;;14.30;86.20;;;;;;5073365;28;20171;-87
2021/09/18 02:18:00;;;;;;;8.35;4.68;;;14.30;86.20;;;;;;5071987;28;20202;-87
2021/09/18 02:20:29;;;;;;;4.93;4.43;;;14.30;86.10;;;;;;5071593;28;20168;-87
2021/09/18 02:22:56;;;;;;;4.93;4.47;;;14.30;86.10;;;;;;5073065;28;20215;-87
2021/09/18 02:25:22;;;;;;;5.53;4.80;;;14.30;86.20;;;;;;5072770;28;20218;-87
2021/09/18 02:27:48;;;;;;;4.85;4.45;;;14.30;86.10;;;;;;5072860;28;20510;-87
2021/09/18 02:30:20;;;;;;;6.75;4.60;;;14.30;86.30;;;;;;5071585;28;20180;-87
2021/09/18 02:32:47;;;;;;;6.68;5.57;;;14.40;86.40;;;;;;5073011;28;20229;-87
2021/09/18 02:35:15;;;;;;;6.85;5.40;;;14.40;86.40;;;;;;5071922;28;20736;-87
2021/09/18 02:37:42;;;;;;;7.70;5.85;;;14.40;86.40;;;;;;5072320;28;20621;-87
2021/09/18 02:40:09;;;;;;;7.70;5.22;;;14.40;86.40;;;;;;5072881;28;20167;-87
2021/09/18 02:42:41;;;;;;;6.90;5.90;;;14.40;86.50;;;;;;5071911;28;20748;-87
2021/09/18 02:45:08;;;;;;;6.40;5.75;;;14.50;86.40;;;;;;5071974;28;20178;-87
2021/09/18 02:47:34;;;;;;;7.82;6.03;;;14.50;86.50;;;;;;5073273;28;20180;-87
2021/09/18 02:50:00;;;;;;;6.05;5.45;;;14.40;86.50;;;;;;5072946;28;20183;-87
2021/09/18 02:52:25;;;;;;;6.65;5.72;;;14.40;86.40;;;;;;5075452;28;20203;-87
2021/09/18 02:54:52;;;;;;;6.57;5.78;;;14.50;86.30;;;;;;5075820;28;20237;-87
2021/09/18 02:57:18;;;;;;;8.45;6.20;;;14.50;86.30;;;;;;5076625;28;20199;-87
2021/09/18 02:59:43;;;;;;;6.95;5.65;;;14.50;86.30;;;;;;5075420;28;20624;-87
2021/09/18 03:02:09;;;;;;;7.15;6.43;;;14.50;86.20;;;;;;5075438;28;20210;-87
2021/09/18 03:04:34;;;;;;;6.85;6.25;;;14.50;86.30;;;;;;5075446;28;20176;-87
2021/09/18 03:07:00;;;;;;;7.05;6.38;;;14.50;86.40;;;;;;5075086;28;20190;-87
2021/09/18 03:09:26;;;;;;;9.65;6.38;;;14.50;86.50;;;;;;5075179;28;20183;-87
2021/09/18 03:11:54;;;;;;;8.00;7.03;;;14.40;86.50;;;;;;5075010;28;20273;-87
2021/09/18 03:14:20;;;;;;;8.90;7.00;;;14.50;86.80;;;;;;5075647;28;20176;-87
2021/09/18 03:16:46;;;;;;;9.95;7.80;;;14.50;87.10;;;;;;5075746;28;20345;-87
2021/09/18 03:19:12;;;;;;;7.60;6.90;;;14.40;87.40;;;;;;5075693;28;20206;-87
2021/09/18 03:21:38;;;;;;;9.80;7.97;;;14.40;87.60;;;;;;5075508;28;20213;-87
2021/09/18 03:24:04;;;;;;;10.13;8.02;;;14.40;87.60;;;;;;5077053;28;20164;-87
2021/09/18 03:26:30;;;;;;;9.00;7.93;;;14.40;87.90;;;;;;5075299;28;20176;-87
2021/09/18 03:28:56;;;;;;;10.25;8.30;;;14.30;88.20;;;;;;5075219;28;20179;-87
2021/09/18 03:31:21;;;;;;;11.18;9.07;;;14.30;88.30;;;;;;5076303;28;20208;-87
2021/09/18 03:33:47;;;;;;;9.43;8.38;;;14.30;88.40;;;;;;5075006;28;20248;-87
2021/09/18 03:36:13;;;;;;;10.00;8.63;;;14.30;88.60;;;;;;5076580;28;20214;-87
2021/09/18 03:38:39;;;;;;;10.23;8.90;;;14.30;88.70;;;;;;5075218;28;20542;-87
2021/09/18 03:41:04;;;;;;;10.85;8.65;;;14.30;88.80;;;;;;5075139;28;20673;-87
2021/09/18 03:43:30;;;;;;;10.77;8.52;;;14.30;88.70;;;;;;5076427;28;20690;-87
2021/09/18 03:45:56;;;;;;;9.60;8.60;;;14.30;88.60;;;;;;5074985;28;20182;-87
2021/09/18 03:48:22;;;;;;;10.48;8.40;;;14.30;88.50;;;;;;5076110;28;20164;-87
2021/09/18 03:50:47;;;;;;;16.58;9.45;;;14.30;88.50;;;;;;5074860;28;20167;-87
2021/09/18 03:53:13;;;;;;;12.48;10.32;;;14.30;88.60;;;;;;5075160;28;20191;-87
2021/09/18 03:55:39;;;;;;;11.00;9.75;;;14.40;88.90;;;;;;5075017;28;20179;-87
2021/09/18 03:58:05;;;;;;;13.23;9.25;;;14.40;89.00;;;;;;5075026;28;20667;-87
2021/09/18 04:00:31;;;;;;;15.35;10.05;;;14.30;89.20;;;;;;5074786;28;20267;-87
2021/09/18 04:02:57;;;;;;;12.35;10.45;;;14.30;89.40;;;;;;5074865;28;20223;-87
2021/09/18 04:05:22;;;;;;;12.35;10.98;;;14.30;89.60;;;;;;5076247;28;20170;-87
2021/09/18 04:07:48;;;;;;;14.57;10.75;;;14.20;89.90;;;;;;5074527;28;20179;-87
2021/09/18 04:10:13;;;;;;;11.88;10.23;;;14.20;90.00;;;;;;5075616;28;20171;-87
2021/09/18 04:12:39;;;;;;;11.63;10.43;;;14.10;90.30;;;;;;5074270;28;20571;-87
2021/09/18 04:15:05;;;;;;;16.50;11.20;;;14.10;90.60;;;;;;5074220;28;20559;-87
2021/09/18 04:17:31;;;;;;;12.13;10.57;;;14.00;90.70;;;;;;5075348;28;20187;-88
2021/09/18 04:19:57;;;;;;;13.93;11.35;;;14.00;90.90;;;;;;5075285;28;20178;-87
2021/09/18 04:22:22;;;;;;;12.27;10.87;;;14.00;91.00;;;;;;5074050;28;20290;-87
2021/09/18 04:24:50;;;;;;;11.65;10.30;;;14.00;91.20;;;;;;5075060;28;20667;-88
2021/09/18 04:27:16;;;;;;;18.27;11.67;;;14.00;91.30;;;;;;5074915;28;20250;-87
2021/09/18 04:29:41;;;;;;;12.93;10.53;;;13.90;91.50;;;;;;5074486;28;20671;-87
2021/09/18 04:32:07;;;;;;;13.00;10.57;;;13.90;91.70;;;;;;5073232;28;20198;-87
2021/09/18 04:34:33;;;;;;;12.57;10.63;;;13.90;91.70;;;;;;5073003;28;20501;-88
2021/09/18 04:37:00;;;;;;;13.35;11.02;;;13.90;91.80;;;;;;5073011;28;20199;-87
2021/09/18 04:39:26;;;;;;;12.43;10.30;;;13.90;91.90;;;;;;5073048;28;20175;-87
2021/09/18 04:41:52;;;;;;;13.17;11.30;;;13.90;92.00;;;;;;5072982;28;20567;-87
2021/09/18 04:44:17;;;;;;;13.67;11.00;;;13.90;92.10;;;;;;5074702;28;20175;-87
2021/09/18 04:46:43;;;;;;;13.47;11.23;;;13.90;92.20;;;;;;5072924;28;20172;-88
2021/09/18 04:49:11;;;;;;;13.70;10.83;;;13.90;92.30;;;;;;5073222;28;20546;-88
2021/09/18 04:51:37;;;;;;;11.90;10.60;;;13.90;92.40;;;;;;5072758;28;20249;-88
2021/09/18 04:54:03;;;;;;;14.27;11.83;;;13.90;92.40;;;;;;5072727;28;20175;-88
2021/09/18 04:56:29;;;;;;;13.97;10.40;;;14.00;92.50;;;;;;5073101;28;20701;-88
2021/09/18 04:58:55;;;;;;;11.30;10.20;;;14.00;92.40;;;;;;5074516;28;20172;-88
2021/09/18 05:01:21;;;;;;;11.40;10.20;;;14.00;92.40;;;;;;5073783;28;20171;-88
2021/09/18 05:03:48;;;;;;;10.77;9.63;;;14.00;92.40;;;;;;5074689;28;20201;-88
2021/09/18 05:06:14;;;;;;;12.65;11.35;;;14.10;92.40;;;;;;5072966;28;20254;-88
2021/09/18 05:08:42;;;;;;;12.40;10.97;;;14.10;92.40;;;;;;5074047;28;20687;-89
2021/09/18 05:11:08;;;;;;;10.85;9.75;;;14.00;92.40;;;;;;5072771;28;20225;-88
2021/09/18 05:13:34;;;;;;;10.80;9.70;;;14.10;92.40;;;;;;5073413;28;20191;-88
2021/09/18 05:16:00;;;;;;;12.97;9.70;;;14.20;92.40;;;;;;5074001;28;20177;-88
2021/09/18 05:18:25;;;;;;;10.47;9.47;;;14.20;92.40;;;;;;5073658;28;20175;-88
2021/09/18 05:20:51;;;;;;;10.48;9.35;;;14.20;92.40;;;;;;5073425;28;20176;-89
2021/09/18 05:23:17;;;;;;;9.70;8.73;;;14.20;92.40;;;;;;5073806;28;20194;-88
2021/09/18 05:25:42;;;;;;;9.20;8.30;;;14.20;92.40;;;;;;5072737;28;20190;-88
2021/09/18 05:28:08;;;;;;;9.63;8.70;;;14.20;92.40;;;;;;5073553;28;20171;-88
2021/09/18 05:30:34;;;;;;;9.80;8.90;;;14.30;92.50;;;;;;5073469;28;20217;-88
2021/09/18 05:33:00;;;;;;;12.27;8.50;;;14.20;92.30;;;;;;5072507;28;20199;-88
2021/09/18 05:35:25;;;;;;;7.93;7.22;;;14.30;92.30;;;;;;5073656;28;20211;-89
2021/09/18 05:37:51;;;;;;;9.80;8.43;;;14.30;92.30;;;;;;5072098;28;20663;-89
2021/09/18 05:40:17;;;;;;;8.32;7.53;;;14.30;92.30;;;;;;5073654;28;20171;-88
2021/09/18 05:42:43;;;;;;;9.10;8.20;;;14.30;92.20;;;;;;5072446;28;20202;-89
2021/09/18 05:45:09;;;;;;;9.75;8.52;;;14.40;92.20;;;;;;5072945;28;20214;-88
2021/09/18 05:47:34;;;;;;;9.98;7.88;;;14.40;92.10;;;;;;5072847;28;20248;-88
2021/09/18 05:50:00;;;;;;;8.32;7.53;;;14.50;92.00;;;;;;5073099;28;20585;-89
2021/09/18 05:52:26;;;;;;;8.88;8.07;;;14.50;91.90;;;;;;5072649;28;20199;-89
2021/09/18 05:54:51;;;;;;;8.75;7.95;;;14.40;91.80;;;;;;5072396;28;20674;-88
2021/09/18 05:57:17;;;;;;;9.38;8.25;;;14.40;91.70;;;;;;5073472;28;20674;-88
2021/09/18 05:59:43;;;;;;;9.32;8.35;;;14.40;91.70;;;;;;5072557;28;20186;-88
2021/09/18 06:02:09;;;;;;;9.38;8.48;;;14.50;91.70;;;;;;5072532;28;20199;-88
2021/09/18 06:04:35;;;;;;;9.63;8.73;;;14.50;91.60;;;;;;5072502;28;20186;-88
2021/09/18 06:07:01;;;;;;;9.88;7.55;;;14.50;91.70;;;;;;5072555;28;20183;-88
2021/09/18 06:09:26;;;;;;;9.55;8.65;;;14.50;91.70;;;;;;5072521;28;20187;-88
2021/09/18 06:11:52;;;;;;;9.50;8.45;;;14.50;91.70;;;;;;5072686;28;20199;-88
2021/09/18 06:14:17;;;;;;;11.45;9.18;;;14.50;91.60;;;;;;5072500;28;20189;-88
2021/09/18 06:16:43;;;;;;;10.27;8.77;;;14.60;91.60;;;;;;5072388;28;20207;-88
2021/09/18 06:19:11;;;;;;;10.45;8.60;;;14.60;91.50;;;;;;5072367;28;20713;-88
2021/09/18 06:21:40;;;;;;;8.80;8.00;;;14.60;91.50;;;;;;5073827;28;20240;-88
2021/09/18 06:24:10;;;;;;;9.88;8.88;;;14.60;91.40;;;;;;5072115;28;20546;-88
2021/09/18 06:26:36;;;;;;;9.77;8.77;;;14.70;91.40;;;;;;5076179;28;20228;-88
2021/09/18 06:29:03;;;;;;;9.48;8.55;;;14.70;91.30;;;;;;5076372;28;20186;-88
2021/09/18 06:31:29;;;;;;;9.93;8.93;;;14.80;91.30;;;;;;5077472;28;20187;-88
2021/09/18 06:33:54;;;;;;;9.75;8.80;;;14.80;91.20;;;;;;5076017;28;20647;-88
2021/09/18 06:36:20;;;;;;;10.52;9.52;;;14.80;91.20;;;;;;5075709;28;20199;-88
2021/09/18 06:38:46;;;;;;;10.95;9.85;;;14.80;91.20;;;;;;5076081;28;20178;-88
2021/09/18 06:41:11;;;;;;;10.80;9.68;;;14.80;91.30;;;;;;5077219;28;20179;-88
2021/09/18 06:43:37;;;;;;;10.10;9.10;;;14.80;91.50;;;;;;5076091;28;20171;-88
2021/09/18 06:46:03;;;;;;;10.93;9.80;;;14.80;91.60;;;;;;5076986;28;20167;-88
2021/09/18 06:48:28;;;;;;;12.73;10.20;;;14.80;91.60;;;;;;5076059;28;20544;-88
2021/09/18 06:50:54;;;;;;;11.40;9.60;;;14.90;91.60;;;;;;5075710;28;20224;-88
2021/09/18 06:53:20;;;;;;;10.88;9.68;;;14.90;91.70;;;;;;5075883;28;20564;-87
2021/09/18 06:55:45;;;;;;;12.07;10.07;;;14.90;91.80;;;;;;5075866;28;20179;-88
2021/09/18 06:58:11;;;;;;;15.35;10.05;;;15.00;91.90;;;;;;5076785;28;20194;-88
2021/09/18 07:00:37;;;;;;;11.50;10.25;;;15.00;91.90;;;;;;5075780;28;20588;-88
2021/09/18 07:03:03;;;;;;;10.70;9.13;;;15.00;91.90;;;;;;5076835;28;20682;-88
2021/09/18 07:05:28;;;;;;;10.35;9.35;;;15.10;91.80;;;;;;5075610;28;20175;-88
2021/09/18 07:07:54;;;;;;;9.43;8.52;;;15.10;91.80;;;;;;5076776;28;20339;-88
2021/09/18 07:10:20;;;;;;;9.55;8.60;;;15.20;91.70;;;;;;5076414;28;20643;-88
2021/09/18 07:12:46;;;;;;;11.95;8.15;;;15.20;91.70;;;;;;5075229;28;20268;-88
2021/09/18 07:15:12;;;;;;;9.25;8.35;;;15.30;91.60;;;;;;5076079;28;20171;-87
2021/09/18 07:17:38;;;;;;;10.38;8.23;;;15.30;91.60;;;;;;5075031;28;20227;-87
2021/09/18 07:20:06;;;;;;;9.23;7.72;;;15.30;91.50;;;;;;5075306;28;20167;-87
2021/09/18 07:22:32;;;;;;;9.55;8.40;;;15.30;91.50;;;;;;5074885;28;20195;-88
2021/09/18 07:24:58;;;;;;;9.05;7.90;;;15.30;91.50;;;;;;5075928;28;20168;-87
2021/09/18 07:27:24;;;;;;;9.45;8.40;;;15.40;91.60;;;;;;5077152;28;20258;-88
2021/09/18 07:29:51;;;;;;;8.85;7.95;;;15.40;91.50;;;;;;5076557;28;20213;-87
2021/09/18 07:32:18;;;;;;;11.77;8.15;;;15.40;91.30;;;;;;5076498;28;20244;-88
2021/09/18 07:34:44;;;;;;;9.05;8.15;;;15.40;91.20;;;;;;5076099;28;20191;-87
2021/09/18 07:37:09;;;;;;;9.38;8.38;;;15.50;91.40;;;;;;5075608;28;20195;-87
2021/09/18 07:39:36;;;;;;;9.18;8.27;;;15.50;91.30;;;;;;5075242;28;20179;-87
2021/09/18 07:42:02;;;;;;;10.25;8.30;;;15.50;91.20;;;;;;5075149;28;20285;-88
2021/09/18 07:44:27;;;;;;;9.70;8.30;;;15.50;91.20;;;;;;5076229;28;20251;-87
2021/09/18 07:46:53;;;;;;;8.77;7.93;;;15.60;91.50;;;;;;5074848;28;20268;-87
2021/09/18 07:49:19;;;;;;;8.52;7.72;;;15.60;91.20;;;;;;5074763;28;20712;-87
2021/09/18 07:51:45;;;;;;;11.75;7.90;;;15.60;91.00;;;;;;5075946;28;20287;-87
2021/09/18 07:54:10;;;;;;;10.65;7.82;;;15.70;91.10;;;;;;5075860;28;20277;-87
2021/09/18 07:56:37;;;;;;;8.43;7.63;;;15.70;90.60;;;;;;5074656;28;20213;-87
2021/09/18 07:59:03;;;;;;;12.32;8.18;;;15.70;90.70;;;;;;5074606;28;20267;-87
2021/09/18 08:01:30;;;;;;;7.93;7.22;;;15.70;90.70;;;;;;5074375;28;20274;-86
2021/09/18 08:04:01;;;;;;;8.48;7.40;;;15.70;90.80;;;;;;5074452;28;20221;-87
2021/09/18 08:06:32;;;;;;;9.15;7.03;;;15.80;90.90;;;;;;5075350;28;20174;-87
2021/09/18 08:08:58;;;;;;;6.28;5.65;;;15.80;90.10;;;;;;5075322;28;20235;-86
2021/09/18 08:11:24;;;;;;;6.75;5.13;;;15.90;89.80;;;;;;5073887;28;20723;-87
2021/09/18 08:13:53;;;;;;;5.78;5.28;;;15.80;89.60;;;;;;5075082;28;20176;-87
2021/09/18 08:16:19;;;;;;;5.88;5.28;;;15.90;89.90;;;;;;5073790;28;20643;-87
2021/09/18 08:18:45;;;;;;;5.55;4.90;;;16.00;89.50;;;;;;5073685;28;20179;-86
2021/09/18 08:21:11;;;;;;;6.57;4.93;;;16.00;89.50;;;;;;5073549;28;20171;-87
2021/09/18 08:23:38;;;;;;;5.20;4.63;;;16.10;88.90;;;;;;5073661;28;20178;-86
2021/09/18 08:26:04;;;;;;;5.38;4.35;;;16.00;88.80;;;;;;5073532;28;20540;-86
2021/09/18 08:28:30;;;;;;;4.80;4.30;;;16.00;88.90;;;;;;5073469;28;20636;-86
2021/09/18 08:30:56;;;;;;;5.70;4.00;;;15.90;88.50;;;;;;5073753;28;20252;-86
2021/09/18 08:33:22;;;;;;;7.18;4.53;;;15.90;89.20;;;;;;5073393;28;20666;-86
2021/09/18 08:35:48;;;;;;;7.30;3.88;;;15.80;88.40;;;;;;5075261;28;20179;-86
2021/09/18 08:38:14;;;;;;;6.13;4.18;;;15.90;88.50;;;;;;5073155;28;20206;-87
2021/09/18 08:40:40;;;;;;;5.63;3.83;;;15.90;88.60;;;;;;5074594;28;20167;-87
2021/09/18 08:43:07;;;;;;;4.75;3.53;;;16.00;88.30;;;;;;5073208;28;20198;-87
2021/09/18 08:45:33;;;;;;;3.20;2.70;;;16.00;88.40;;;;;;5074084;28;20172;-87
2021/09/18 08:48:05;;;;;;;3.95;2.78;;;16.00;87.70;;;;;;5072694;28;20179;-87
2021/09/18 08:50:31;;;;;;;3.17;2.28;;;16.10;87.60;;;;;;5073376;28;20578;-87
2021/09/18 08:52:57;;;;;;;2.70;2.10;;;16.20;87.00;;;;;;5074446;28;20675;-87
2021/09/18 08:55:23;;;;;;;3.55;2.20;;;16.20;86.40;;;;;;5075936;28;20179;-87
2021/09/18 08:57:50;;;;;;;2.95;2.42;;;16.30;86.80;;;;;;5074819;28;20252;-87
2021/09/18 09:00:43;;;;;;;2.25;1.65;;;16.30;87.20;;;;;;5072907;28;20529;-87
2021/09/18 09:03:09;;;;;;;2.95;2.30;;;16.30;86.50;;;;;;5071084;28;20195;-87
2021/09/18 09:05:38;;;;;;;3.40;2.25;;;16.30;86.30;;;;;;5073600;28;20179;-87
2021/09/18 09:08:15;;;;;;;2.25;2.05;;;16.40;86.40;;;;;;5072727;28;20320;-87
2021/09/18 09:10:44;;;;;;;2.97;2.20;;;16.50;86.60;;;;;;5072790;28;20179;-87
2021/09/18 09:13:19;;;;;;;2.05;1.92;;;16.50;86.60;;;;;;5072739;28;20597;-87
2021/09/18 09:15:46;;;;;;;3.13;1.33;;;16.60;86.00;;;;;;5073248;28;20181;-87
2021/09/18 09:18:26;;;;;;;5.10;1.90;;;16.70;86.20;;;;;;5072519;28;20202;-87
2021/09/18 09:21:14;;;;;;;2.50;1.48;;;16.70;85.60;;;;;;5072742;28;20165;-86
2021/09/18 09:23:42;;;;;;;2.00;1.58;;;16.70;84.60;;;;;;5072433;28;20175;-87
2021/09/18 09:26:08;;;;;;;4.15;2.08;;;16.70;84.50;;;;;;5072510;28;20180;-87
2021/09/18 09:28:39;;;;;;;8.63;2.05;;;16.80;85.30;;;;;;5073878;28;20600;-87
2021/09/18 09:31:17;;;;;;;2.65;2.05;;;16.90;85.10;;;;;;5072621;28;20218;-87
2021/09/18 09:34:19;;;;;;;1.95;1.83;;;16.90;84.80;;;;;;5072715;28;20189;-87
2021/09/18 09:36:49;;;;;;;2.78;1.60;;;16.90;84.60;;;;;;5034865;28;20210;-87
2021/09/18 09:39:20;;;;;;;2.72;1.70;;;16.80;84.30;;;;;;5065809;28;20206;-87
2021/09/18 09:41:54;;;;;;;2.95;1.77;;;16.90;84.40;;;;;;5074176;28;20226;-87
2021/09/18 09:44:22;;;;;;;2.95;1.25;;;16.90;84.80;;;;;;5074173;28;20521;-86
2021/09/18 09:47:03;;;;;;;2.22;1.50;;;17.00;83.90;;;;;;5072603;28;20203;-87
2021/09/18 09:49:51;;;;;;;6.70;1.90;;;17.10;84.40;;;;;;5072594;28;20262;-88
2021/09/18 09:52:21;;;;;;;1.98;1.30;;;17.00;85.00;;;;;;5073187;28;20191;-87
2021/09/18 09:54:47;;;;;;;1.55;1.30;;;16.90;83.90;;;;;;5072691;28;20175;-87
2021/09/18 09:57:14;;;;;;;2.05;1.25;;;16.70;84.10;;;;;;5072739;28;20194;-87
2021/09/18 09:59:41;;;;;;;1.38;1.13;;;16.70;85.10;;;;;;5076058;28;20178;-87
2021/09/18 10:02:09;;;;;;;2.47;1.27;;;16.70;85.70;;;;;;5079756;28;20195;-87
2021/09/18 10:04:36;;;;;;;1.75;1.25;;;16.60;85.50;;;;;;5079352;28;20201;-87
2021/09/18 10:07:03;;;;;;;3.28;1.50;;;16.50;86.40;;;;;;5079586;28;20261;-87
2021/09/18 10:09:29;;;;;;;2.90;1.73;;;16.30;87.20;;;;;;5078806;28;20524;-87
2021/09/18 10:11:57;;;;;;;2.10;2.00;;;16.30;88.00;;;;;;5079056;28;20573;-87
2021/09/18 10:14:25;;;;;;;3.15;2.03;;;16.30;88.60;;;;;;5079787;28;20262;-87
2021/09/18 10:16:56;;;;;;;2.88;2.03;;;16.20;89.00;;;;;;5080159;28;20213;-87
2021/09/18 10:19:41;;;;;;;2.10;1.55;;;16.20;88.80;;;;;;5078759;28;20175;-87
2021/09/18 10:24:54;;;;;;;2.53;2.15;;;16.30;88.80;;;;;;5080499;28;20185;-87
2021/09/18 10:27:22;;;;;;;2.97;1.98;;;16.30;88.60;;;;;;5078810;28;20175;-87
2021/09/18 10:29:50;;;;;;;2.20;1.95;;;16.30;88.70;;;;;;5078613;28;20175;-87
2021/09/18 10:32:17;;;;;;;1.83;1.73;;;16.40;89.10;;;;;;5079147;28;20202;-87
2021/09/18 10:34:43;;;;;;;3.95;1.90;;;16.50;89.20;;;;;;5078900;28;20195;-87
2021/09/18 10:37:32;;;;;;;3.63;1.52;;;16.50;87.70;;;;;;5078945;28;20199;-87
2021/09/18 10:40:17;;;;;;;2.10;1.67;;;16.60;87.10;;;;;;5079882;28;20178;-87
2021/09/18 10:42:46;;;;;;;3.15;1.58;;;16.70;87.30;;;;;;5078797;28;20191;-86
2021/09/18 10:45:14;;;;;;;4.65;1.45;;;16.60;86.80;;;;;;5078552;28;20171;-86
2021/09/18 10:47:45;;;;;;;3.60;1.40;;;16.50;86.70;;;;;;5078645;28;20182;-86
2021/09/18 10:50:25;;;;;;;3.05;1.60;;;16.40;87.00;;;;;;5078832;28;20171;-86
2021/09/18 10:53:07;;;;;;;2.92;1.67;;;16.30;87.80;;;;;;5079022;28;20728;-86
2021/09/18 10:55:57;;;;;;;1.95;1.85;;;16.30;87.50;;;;;;5079321;28;20590;-86
2021/09/18 10:58:26;;;;;;;2.92;2.10;;;16.40;88.20;;;;;;5073044;28;20674;-86
2021/09/18 11:00:58;;;;;;;4.13;2.42;;;16.50;88.00;;;;;;5078559;28;20639;-85
2021/09/18 11:03:38;;;;;;;2.47;2.25;;;16.60;87.00;;;;;;5078221;28;20195;-86
2021/09/18 11:06:05;;;;;;;3.13;1.52;;;16.60;86.60;;;;;;5079677;28;20264;-86
2021/09/18 11:08:35;;;;;;;3.40;1.67;;;16.70;86.90;;;;;;5078195;28;20182;-86
2021/09/18 11:11:04;;;;;;;2.78;1.33;;;16.70;86.80;;;;;;5076287;28;20159;-86
2021/09/18 11:13:39;;;;;;;1.25;1.15;;;16.70;87.50;;;;;;5075446;28;20233;-86
2021/09/18 11:16:17;;;;;;;1.90;1.50;;;16.50;87.50;;;;;;5075355;28;20701;-86
2021/09/18 11:18:44;;;;;;;5.45;1.50;;;16.50;87.70;;;;;;5076323;28;20214;-86
2021/09/18 11:21:09;;;;;;;2.42;1.45;;;16.50;87.90;;;;;;5075175;28;20266;-86
2021/09/18 11:23:44;;;;;;;1.98;1.33;;;16.30;87.50;;;;;;5075003;28;20278;-86
2021/09/18 11:26:39;;;;;;;5.85;1.90;;;16.30;88.00;;;;;;5075489;28;20669;-86
2021/09/18 11:29:19;;;;;;;4.68;1.70;;;16.30;88.10;;;;;;5076109;28;20663;-86
2021/09/18 11:32:05;;;;;;;4.93;1.70;;;16.30;88.00;;;;;;5074946;28;20191;-86
2021/09/18 11:34:47;;;;;;;2.70;1.80;;;16.30;87.60;;;;;;5075892;28;20194;-86
2021/09/18 11:37:23;;;;;;;4.57;1.73;;;16.50;88.00;;;;;;5074355;28;20183;-87
2021/09/18 11:39:55;;;;;;;3.10;1.67;;;16.50;87.30;;;;;;5074427;28;20159;-87
2021/09/18 11:42:37;;;;;;;2.58;1.63;;;16.40;87.10;;;;;;5075066;28;20187;-86
2021/09/18 11:45:05;;;;;;;3.22;1.70;;;16.50;86.80;;;;;;5074615;28;20160;-87
2021/09/18 11:47:34;;;;;;;3.80;1.70;;;16.50;85.80;;;;;;5075766;28;20643;-87
2021/09/18 11:50:02;;;;;;;1.88;1.50;;;16.60;85.90;;;;;;5075540;28;20171;-87
2021/09/18 11:52:37;;;;;;;3.33;1.77;;;16.60;85.70;;;;;;5075815;28;20218;-87
2021/09/18 11:55:04;;;;;;;2.50;2.00;;;16.60;86.10;;;;;;5074715;28;20170;-87
2021/09/18 11:57:29;;;;;;;2.08;1.80;;;16.70;86.50;;;;;;5076997;28;20187;-85
2021/09/18 11:59:55;;;;;;;5.63;1.75;;;16.80;85.90;;;;;;5075817;28;20194;-85
2021/09/18 12:02:31;;;;;;;4.20;1.60;;;16.80;85.00;;;;;;5074690;28;20544;-86
2021/09/18 12:04:57;;;;;;;3.20;1.45;;;16.80;84.50;;;;;;5074413;28;20171;-86
2021/09/18 12:07:22;;;;;;;2.88;1.63;;;16.90;84.30;;;;;;5074708;28;20185;-86
2021/09/18 12:09:48;;;;;;;4.30;1.63;;;17.00;84.60;;;;;;5075594;28;20171;-87
2021/09/18 12:12:14;;;;;;;2.55;1.30;;;17.00;84.30;;;;;;5074139;28;20187;-86
2021/09/18 12:14:40;;;;;;;2.90;1.48;;;17.00;83.70;;;;;;5075464;28;20262;-86
2021/09/18 12:17:18;;;;;;;11.05;1.95;;;17.00;82.50;;;;;;5073990;28;20286;-86
2021/09/18 12:19:45;;;;;;;3.20;1.50;;;17.00;82.70;;;;;;5075181;28;20167;-86
2021/09/18 12:22:11;;;;;;;2.65;1.55;;;17.10;83.00;;;;;;5074335;28;20260;-86
2021/09/18 12:24:39;;;;;;;7.53;2.20;;;17.10;82.10;;;;;;5073937;28;20171;-87
2021/09/18 12:27:24;;;;;;;3.47;1.83;;;17.20;82.50;;;;;;5074033;28;20172;-86
2021/09/18 12:30:03;;;;;;;5.30;2.22;;;17.10;82.70;;;;;;5073611;28;20171;-86
2021/09/18 12:32:29;;;;;;;3.85;2.00;;;17.10;82.70;;;;;;5075010;28;20282;-86
2021/09/18 12:34:57;;;;;;;2.92;1.88;;;17.10;84.00;;;;;;5074714;28;20200;-86
2021/09/18 12:37:36;;;;;;;5.30;2.10;;;17.10;82.90;;;;;;5073488;28;20682;-86
2021/09/18 12:40:20;;;;;;;6.55;2.10;;;17.00;83.50;;;;;;5074802;28;20240;-86
2021/09/18 12:43:05;;;;;;;5.93;1.75;;;17.10;82.70;;;;;;5073715;28;20253;-86
2021/09/18 12:45:34;;;;;;;4.97;1.98;;;17.10;82.90;;;;;;5073798;28;20172;-87
2021/09/18 12:48:23;;;;;;;4.60;1.90;;;17.00;82.70;;;;;;5073307;28;20262;-86
2021/09/18 12:51:09;;;;;;;3.13;1.73;;;17.10;82.00;;;;;;5073095;28;20180;-86